Etters, Pennsylvania
Current Conditions -  °F | °C
As of 9:56 AM on Monday 22 Dec 2014 (Local Time) from KMDT Reporting Station
Haze Haze  
Wind Chill: 28°   Ceiling: 4300
Heat Index: 28°   Visibility: 6mi
Dew Point: 24°   Wind: 3mph
Humidity: 85%   Direction: 10°N
Pressure: 30.31"   Gusts: NA
Location:  40.15°N, 76.79°W
Report Text: KMDT 221456Z 01003KT 6SM BR OVC043 M02/M04 A3031 RMK AO2 SLP270 T10221044 53000
Loading
Personal Weather Stations






























Interactive Weather Map New forecast layout! Learn more

10-Day Weather Forecast

Advertisements
Track Severe Weather on mobile